Time;durP1;ratioP1;P1;durP2;ratioP2;P2;SDS_P1;SDS_P2;PMS_P1;PMS_P2;Temp;Humidity;BMP_temperature;BMP_pressure;BME280_temperature;BME280_humidity;BME280_pressure;Samples;Min_cycle;Max_cycle;Signal;HPM_P1;HPM_P2
2021/06/30 00:00:24;;;;;;;11.25;0.60;;;;;;;21.63;58.94;99491.55;125753;1093;22798;-61
2021/06/30 00:03:17;;;;;;;6.43;0.60;;;;;;;21.54;60.14;99497.81;125803;1093;26555;-61
2021/06/30 00:05:49;;;;;;;5.30;0.70;;;;;;;21.46;60.90;99504.84;125878;1093;24248;-61
2021/06/30 00:08:21;;;;;;;5.38;0.60;;;;;;;21.35;60.82;99508.88;125819;1092;22819;-62
2021/06/30 00:10:53;;;;;;;3.75;0.43;;;;;;;21.27;61.48;99510.94;125771;1093;26213;-61
2021/06/30 00:13:25;;;;;;;5.48;0.53;;;;;;;21.14;61.44;99508.34;125807;1093;22791;-62
2021/06/30 00:15:57;;;;;;;3.88;0.95;;;;;;;21.07;61.89;99511.16;125793;1093;27619;-62
2021/06/30 00:18:29;;;;;;;5.70;0.50;;;;;;;20.93;62.46;99502.08;125813;1093;22808;-61
2021/06/30 00:21:00;;;;;;;3.33;0.50;;;;;;;20.83;62.66;99513.26;125810;1093;27186;-61
2021/06/30 00:23:32;;;;;;;5.00;0.48;;;;;;;20.71;63.18;99497.92;125830;1093;22770;-61
2021/06/30 00:26:04;;;;;;;6.83;0.70;;;;;;;20.67;63.56;99499.64;125800;1092;22774;-62
2021/06/30 00:28:37;;;;;;;3.95;0.60;;;;;;;20.62;64.06;99494.91;125953;1092;22767;-62
2021/06/30 00:31:10;;;;;;;4.43;0.40;;;;;;;20.56;64.71;99485.83;125791;1093;22822;-61
2021/06/30 00:33:42;;;;;;;5.38;0.50;;;;;;;20.45;64.50;99474.84;125965;1093;22800;-61
2021/06/30 00:36:14;;;;;;;1.70;0.50;;;;;;;20.37;65.21;99455.00;125897;1092;22823;-62
2021/06/30 00:38:46;;;;;;;8.20;0.55;;;;;;;20.35;65.00;99431.38;125919;1092;22752;-63
2021/06/30 00:41:17;;;;;;;3.03;0.53;;;;;;;20.32;65.30;99426.85;125823;1093;22791;-63
2021/06/30 00:43:50;;;;;;;4.03;0.60;;;;;;;20.28;66.04;99420.80;125741;1093;22764;-62
2021/06/30 00:46:31;;;;;;;8.60;0.58;;;;;;;20.22;65.92;99417.38;125760;1093;22886;-62
2021/06/30 00:49:06;;;;;;;3.65;0.40;;;;;;;20.14;66.27;99398.27;125859;1093;24659;-61
2021/06/30 00:51:39;;;;;;;4.45;0.40;;;;;;;20.07;66.68;99379.17;126208;1093;26261;-62
2021/06/30 00:54:11;;;;;;;8.05;0.68;;;;;;;20.07;66.62;99369.94;125874;1093;22797;-62
2021/06/30 00:56:43;;;;;;;11.23;0.93;;;;;;;20.06;67.63;99346.52;125958;1093;22805;-62
2021/06/30 00:59:16;;;;;;;5.40;0.50;;;;;;;20.04;67.31;99340.66;125677;1093;22764;-62
2021/06/30 01:01:47;;;;;;;3.35;0.50;;;;;;;20.06;67.18;99315.34;125957;1093;27153;-62
2021/06/30 01:04:18;;;;;;;2.85;0.40;;;;;;;20.04;67.04;99291.73;125808;1093;22801;-63
2021/06/30 01:06:51;;;;;;;13.20;0.50;;;;;;;19.98;67.59;99274.94;125731;1093;22829;-62
2021/06/30 01:09:22;;;;;;;4.97;0.40;;;;;;;19.91;67.81;99272.84;125768;1092;24592;-62
2021/06/30 01:11:57;;;;;;;4.43;0.50;;;;;;;19.86;68.11;99264.55;125817;1092;22866;-63
2021/06/30 01:14:32;;;;;;;4.70;0.50;;;;;;;19.80;68.37;99225.06;125861;1093;27157;-63
2021/06/30 01:17:05;;;;;;;7.77;0.60;;;;;;;19.76;68.80;99175.81;125855;1093;26261;-62
2021/06/30 01:19:38;;;;;;;7.73;0.40;;;;;;;19.58;69.47;99123.91;126000;1093;27198;-63
2021/06/30 01:22:10;;;;;;;6.40;1.23;;;;;;;19.38;70.26;99127.72;125837;1092;23351;-63
2021/06/30 01:24:50;;;;;;;4.53;0.40;;;;;;;19.24;70.75;99127.11;125782;1093;27185;-63
2021/06/30 01:27:23;;;;;;;3.40;0.40;;;;;;;19.07;70.59;99106.37;125806;1092;22794;-63
2021/06/30 01:29:54;;;;;;;4.93;0.40;;;;;;;19.02;70.66;99104.47;125812;1092;22858;-62
2021/06/30 01:32:27;;;;;;;1.80;0.30;;;;;;;19.02;70.58;99161.03;125710;1092;23463;-62
2021/06/30 01:35:01;;;;;;;4.55;0.50;;;;;;;18.92;72.07;99290.17;125819;1093;27191;-62
2021/06/30 01:37:44;;;;;;;4.65;0.35;;;;;;;18.76;71.65;99268.81;125780;1092;22717;-63
2021/06/30 01:40:18;;;;;;;4.90;0.30;;;;;;;18.65;72.75;99314.36;125878;1093;26232;-63
2021/06/30 01:42:51;;;;;;;2.60;0.40;;;;;;;18.52;72.51;99313.16;125857;1093;22800;-63
2021/06/30 01:45:23;;;;;;;4.30;0.33;;;;;;;18.48;72.40;99297.87;125905;1093;22803;-64
2021/06/30 01:47:55;;;;;;;2.63;0.30;;;;;;;18.46;72.45;99287.13;126120;1092;22803;-63
2021/06/30 01:50:28;;;;;;;3.00;0.40;;;;;;;18.47;72.55;99294.30;125800;1093;24191;-63
2021/06/30 01:52:59;;;;;;;4.10;0.30;;;;;;;18.47;72.73;99294.30;125816;1093;23055;-63
2021/06/30 01:55:31;;;;;;;3.35;0.30;;;;;;;18.44;72.82;99292.58;125786;1092;22784;-63
2021/06/30 01:58:03;;;;;;;3.80;0.40;;;;;;;18.39;72.99;99287.06;125901;1092;22854;-63
2021/06/30 02:00:35;;;;;;;3.15;0.30;;;;;;;18.33;72.91;99283.64;125807;1093;22791;-64
2021/06/30 02:03:07;;;;;;;1.95;0.30;;;;;;;18.28;73.06;99287.36;125804;1093;22790;-63
2021/06/30 02:05:39;;;;;;;1.97;0.30;;;;;;;18.25;73.33;99283.57;125925;1093;25829;-63
2021/06/30 02:08:11;;;;;;;2.15;0.40;;;;;;;18.22;73.35;99278.28;125896;1093;22861;-63
2021/06/30 02:10:45;;;;;;;3.35;0.30;;;;;;;18.19;73.62;99279.38;125775;1093;22803;-63
2021/06/30 02:13:17;;;;;;;3.25;0.40;;;;;;;18.18;73.99;99286.35;126028;1093;25945;-63
2021/06/30 02:15:49;;;;;;;0.85;0.25;;;;;;;18.16;73.54;99291.80;125789;1093;22797;-63
2021/06/30 02:18:22;;;;;;;1.55;0.30;;;;;;;18.13;73.89;99299.31;125831;1092;22776;-63
2021/06/30 02:20:53;;;;;;;3.35;0.40;;;;;;;18.11;73.66;99293.45;125793;1093;22875;-63
2021/06/30 02:23:26;;;;;;;1.90;0.20;;;;;;;18.10;74.08;99294.02;125998;1093;26319;-63
2021/06/30 02:26:04;;;;;;;1.60;0.20;;;;;;;18.06;73.86;99287.97;125929;1093;28928;-63
2021/06/30 02:28:36;;;;;;;2.50;0.30;;;;;;;18.01;73.79;99298.09;125804;1092;22801;-63
2021/06/30 02:31:10;;;;;;;4.25;0.30;;;;;;;17.97;73.92;99303.33;125953;1093;27284;-63
2021/06/30 02:33:42;;;;;;;1.30;0.20;;;;;;;17.90;74.19;99295.55;125987;1092;22845;-63
2021/06/30 02:36:16;;;;;;;2.80;0.30;;;;;;;17.84;74.27;99302.64;125920;1093;22851;-63
2021/06/30 02:38:47;;;;;;;4.70;0.30;;;;;;;17.81;74.32;99309.41;125815;1093;22881;-61
2021/06/30 02:41:20;;;;;;;0.75;0.20;;;;;;;17.79;74.58;99312.78;125884;1092;22793;-62
2021/06/30 02:43:51;;;;;;;2.25;0.20;;;;;;;17.79;74.49;99324.81;125838;1093;27154;-62
2021/06/30 02:46:23;;;;;;;3.30;0.30;;;;;;;17.78;74.69;99322.55;125869;1093;22870;-62
2021/06/30 02:48:55;;;;;;;1.10;0.20;;;;;;;17.78;74.30;99328.20;125835;1093;24478;-62
2021/06/30 02:51:26;;;;;;;1.00;0.20;;;;;;;17.77;74.64;99323.88;125872;1093;22829;-62
2021/06/30 02:53:59;;;;;;;1.30;0.30;;;;;;;17.75;74.77;99315.20;125868;1092;22939;-61
2021/06/30 02:56:30;;;;;;;2.75;0.40;;;;;;;17.76;74.73;99322.34;125865;1093;22824;-62
2021/06/30 02:59:02;;;;;;;1.55;0.20;;;;;;;17.75;74.70;99315.20;125900;1093;22927;-62
2021/06/30 03:01:34;;;;;;;2.93;0.30;;;;;;;17.73;74.62;99309.34;125804;1093;22854;-62
2021/06/30 03:04:07;;;;;;;2.30;0.40;;;;;;;17.70;75.05;99325.31;125862;1093;25807;-62
2021/06/30 03:06:38;;;;;;;1.07;0.30;;;;;;;17.71;75.17;99320.43;125970;1093;22844;-62
2021/06/30 03:09:10;;;;;;;1.10;0.30;;;;;;;17.67;75.36;99323.58;125858;1093;22989;-62
2021/06/30 03:11:42;;;;;;;1.70;0.40;;;;;;;17.67;75.36;99325.66;125816;1093;22794;-62
2021/06/30 03:14:16;;;;;;;3.15;0.40;;;;;;;17.66;75.02;99335.42;125845;1092;22773;-62
2021/06/30 03:16:51;;;;;;;2.05;1.00;;;;;;;17.68;75.31;99341.28;125851;1092;26219;-62
2021/06/30 03:19:23;;;;;;;1.85;0.40;;;;;;;17.67;75.38;99342.60;126496;1093;27195;-59
2021/06/30 03:21:54;;;;;;;1.50;0.30;;;;;;;17.66;75.01;99343.89;125767;1093;22762;-58
2021/06/30 03:24:27;;;;;;;1.35;0.30;;;;;;;17.67;75.55;99346.16;125764;1093;22818;-61
2021/06/30 03:26:58;;;;;;;1.97;0.30;;;;;;;17.70;75.18;99339.42;125922;1093;22767;-60
2021/06/30 03:29:30;;;;;;;5.80;0.40;;;;;;;17.71;75.15;99343.02;125815;1093;22761;-57
2021/06/30 03:32:01;;;;;;;2.05;0.40;;;;;;;17.73;75.83;99334.75;125948;1092;24475;-59
2021/06/30 03:34:32;;;;;;;2.63;0.30;;;;;;;17.74;75.68;99339.84;126056;1092;22820;-61
2021/06/30 03:37:04;;;;;;;0.90;0.30;;;;;;;17.78;76.08;99345.90;129905;1093;22543;-61
2021/06/30 03:39:37;;;;;;;3.90;0.30;;;;;;;17.82;76.05;99356.08;128077;1093;22918;-62
2021/06/30 03:42:10;;;;;;;1.95;0.30;;;;;;;17.84;76.45;99359.11;126851;1093;22800;-62
2021/06/30 03:44:43;;;;;;;1.15;0.30;;;;;;;17.88;76.08;99363.11;126080;1092;22764;-61
2021/06/30 03:47:15;;;;;;;2.35;0.30;;;;;;;17.89;76.37;99367.46;125870;1093;22801;-59
2021/06/30 03:49:46;;;;;;;0.77;0.30;;;;;;;17.91;76.04;99376.14;125826;1093;26277;-61
2021/06/30 03:52:18;;;;;;;1.97;0.30;;;;;;;17.93;75.98;99373.52;125884;1092;23037;-60
2021/06/30 03:54:49;;;;;;;1.90;0.40;;;;;;;17.96;76.30;99372.41;126013;1093;25723;-63
2021/06/30 03:57:22;;;;;;;0.80;0.30;;;;;;;17.99;76.38;99393.91;125845;1092;22814;-62
2021/06/30 03:59:54;;;;;;;1.75;0.30;;;;;;;18.03;76.76;99396.38;126059;1093;22750;-59
2021/06/30 04:02:25;;;;;;;2.80;0.40;;;;;;;18.05;76.68;99399.41;126045;1093;22861;-63
2021/06/30 04:04:56;;;;;;;5.70;0.50;;;;;;;18.06;76.44;99393.23;125917;1092;22761;-59
2021/06/30 04:07:28;;;;;;;1.00;0.30;;;;;;;18.07;76.82;99397.55;125879;1092;23630;-61
2021/06/30 04:09:59;;;;;;;3.60;0.30;;;;;;;18.08;76.43;99401.15;125913;1093;26325;-61
2021/06/30 04:12:30;;;;;;;3.20;0.30;;;;;;;18.11;76.58;99400.80;125790;1093;22790;-62
2021/06/30 04:15:02;;;;;;;2.70;0.25;;;;;;;18.10;76.75;99402.12;125957;1092;23489;-62
2021/06/30 04:17:34;;;;;;;4.20;0.40;;;;;;;18.11;76.75;99403.62;125827;1092;22765;-62
2021/06/30 04:20:08;;;;;;;3.65;0.30;;;;;;;18.09;77.08;99408.30;125865;1093;22871;-61
2021/06/30 04:22:40;;;;;;;3.10;0.30;;;;;;;18.05;76.79;99408.65;125962;1093;22813;-61
2021/06/30 04:25:13;;;;;;;1.85;0.20;;;;;;;18.01;77.52;99408.23;125969;1093;26235;-61
2021/06/30 04:27:45;;;;;;;2.10;0.30;;;;;;;17.99;77.43;99401.61;126013;1092;22775;-62
2021/06/30 04:30:18;;;;;;;3.30;0.30;;;;;;;17.98;77.60;99402.94;125777;1092;22761;-60
2021/06/30 04:32:49;;;;;;;4.70;0.30;;;;;;;17.97;78.03;99395.77;125894;1093;22815;-61
2021/06/30 04:35:21;;;;;;;0.80;0.30;;;;;;;17.95;78.03;99401.20;125776;1093;27807;-62
2021/06/30 04:37:53;;;;;;;2.40;0.20;;;;;;;17.95;78.01;99401.97;125889;1092;24172;-61
2021/06/30 04:40:25;;;;;;;1.30;0.20;;;;;;;17.95;78.39;99404.80;125749;1093;22758;-61
2021/06/30 04:42:56;;;;;;;1.55;0.20;;;;;;;17.97;78.30;99416.30;125804;1093;22770;-60
2021/06/30 04:45:27;;;;;;;8.65;0.30;;;;;;;17.99;78.40;99418.56;125691;1093;25868;-61
2021/06/30 04:48:00;;;;;;;1.55;0.65;;;;;;;17.97;78.67;99413.47;125716;1093;22760;-57
2021/06/30 04:50:31;;;;;;;0.60;0.10;;;;;;;17.98;78.66;99406.50;125734;1093;22763;-60
2021/06/30 04:53:03;;;;;;;1.25;0.10;;;;;;;17.97;79.17;99409.88;125778;1093;22807;-59
2021/06/30 04:55:34;;;;;;;1.90;0.20;;;;;;;17.98;79.34;99414.23;125664;1093;27217;-58
2021/06/30 04:58:10;;;;;;;0.90;0.20;;;;;;;18.00;79.34;99423.66;125789;1093;22868;-58
2021/06/30 05:00:42;;;;;;;0.80;0.20;;;;;;;18.01;79.17;99425.18;125830;1093;22767;-57
2021/06/30 05:03:14;;;;;;;1.70;0.20;;;;;;;18.06;79.35;99418.66;125726;1092;27207;-55
2021/06/30 05:05:46;;;;;;;4.35;0.30;;;;;;;18.11;79.93;99412.09;126622;1093;24429;-57
2021/06/30 05:08:27;;;;;;;3.30;0.30;;;;;;;18.16;79.84;99407.62;125675;1092;24427;-58
2021/06/30 05:10:59;;;;;;;1.77;0.30;;;;;;;18.22;79.63;99409.00;125613;1093;24427;-58
2021/06/30 05:13:30;;;;;;;1.10;0.20;;;;;;;18.27;79.75;99413.73;129882;1093;22518;-58
2021/06/30 05:16:03;;;;;;;1.65;0.40;;;;;;;18.31;79.38;99425.45;129893;1093;22607;-59
2021/06/30 05:18:35;;;;;;;1.15;0.20;;;;;;;18.38;79.15;99436.06;129892;1093;23483;-59
2021/06/30 05:21:15;;;;;;;3.90;0.30;;;;;;;18.47;79.29;99424.31;129858;1093;22528;-59
2021/06/30 05:23:47;;;;;;;1.15;0.30;;;;;;;18.56;79.35;99434.34;127220;1093;22772;-59
2021/06/30 05:26:19;;;;;;;10.00;0.40;;;;;;;18.61;79.17;99432.69;125673;1093;22971;-57
2021/06/30 05:28:51;;;;;;;3.40;0.35;;;;;;;18.66;79.45;99434.63;126000;1093;23206;-59
2021/06/30 05:31:23;;;;;;;4.25;0.40;;;;;;;18.71;79.25;99434.47;125794;1091;24600;-58
2021/06/30 05:33:56;;;;;;;2.10;0.30;;;;;;;18.76;79.24;99425.09;125794;1093;25667;-59
2021/06/30 05:36:28;;;;;;;4.00;0.23;;;;;;;18.83;79.15;99424.36;125772;1092;22762;-57
2021/06/30 05:39:01;;;;;;;5.55;0.50;;;;;;;18.88;78.90;99431.95;125776;1093;22782;-57
2021/06/30 05:41:33;;;;;;;6.95;0.40;;;;;;;18.92;78.98;99426.70;125892;1092;22788;-60
2021/06/30 05:44:05;;;;;;;4.07;0.33;;;;;;;18.98;79.22;99429.36;125755;1093;22844;-59
2021/06/30 05:46:36;;;;;;;1.10;0.30;;;;;;;19.01;79.12;99429.02;125780;1092;26463;-60
2021/06/30 05:49:08;;;;;;;2.50;0.40;;;;;;;19.05;78.70;99435.08;125905;1092;22765;-58
2021/06/30 05:51:42;;;;;;;1.20;0.20;;;;;;;19.07;78.45;99434.52;125952;1092;22794;-59
2021/06/30 05:54:14;;;;;;;7.15;0.30;;;;;;;19.08;78.24;99428.29;125839;1093;22757;-59
2021/06/30 05:56:45;;;;;;;5.33;0.30;;;;;;;19.10;78.37;99433.38;125675;1093;22767;-59
2021/06/30 05:59:17;;;;;;;4.90;0.30;;;;;;;19.12;78.90;99431.52;125774;1092;24683;-58
2021/06/30 06:01:48;;;;;;;1.65;0.30;;;;;;;19.14;78.60;99425.32;125572;1093;26706;-58
2021/06/30 06:04:20;;;;;;;4.60;0.30;;;;;;;19.19;78.78;99424.39;125563;1091;22784;-59
2021/06/30 06:06:51;;;;;;;1.10;0.23;;;;;;;19.26;78.89;99420.84;125784;1093;22767;-59
2021/06/30 06:09:22;;;;;;;2.80;0.30;;;;;;;19.30;78.81;99421.25;125699;1093;22757;-59
2021/06/30 06:11:54;;;;;;;1.87;0.53;;;;;;;19.33;78.58;99411.63;125702;1093;22797;-59
2021/06/30 06:14:26;;;;;;;2.57;0.20;;;;;;;19.39;78.35;99415.06;125777;1093;22788;-60
2021/06/30 06:16:58;;;;;;;2.20;0.40;;;;;;;19.48;78.53;99422.28;125741;1093;26839;-60
2021/06/30 06:19:30;;;;;;;1.47;0.30;;;;;;;19.57;78.52;99428.19;125709;1093;22758;-61
2021/06/30 06:22:02;;;;;;;4.10;0.20;;;;;;;19.69;78.36;99429.34;125712;1093;22778;-60
2021/06/30 06:24:34;;;;;;;2.30;0.30;;;;;;;19.75;78.02;99432.77;125858;1093;23487;-59
2021/06/30 06:27:06;;;;;;;4.43;0.30;;;;;;;19.84;77.77;99437.87;125664;1093;25896;-60
2021/06/30 06:29:39;;;;;;;0.50;0.10;;;;;;;19.95;77.55;99446.03;125719;1093;22769;-60
2021/06/30 06:32:12;;;;;;;3.70;0.20;;;;;;;20.03;77.05;99458.13;125620;1093;26216;-59
2021/06/30 06:34:47;;;;;;;2.37;0.30;;;;;;;20.13;77.64;99450.59;126225;1093;26193;-59
2021/06/30 06:37:22;;;;;;;2.35;0.20;;;;;;;20.25;77.53;99448.20;126138;1093;22761;-62
2021/06/30 06:39:57;;;;;;;1.80;0.20;;;;;;;20.38;76.82;99447.27;126123;1092;26235;-60
2021/06/30 06:42:32;;;;;;;2.80;0.30;;;;;;;20.51;76.67;99442.16;126329;1093;26421;-59
2021/06/30 06:45:05;;;;;;;3.85;0.38;;;;;;;20.65;76.63;99440.63;125962;1092;22792;-57
2021/06/30 06:47:38;;;;;;;4.20;0.20;;;;;;;20.81;76.48;99449.90;125798;1093;22777;-60
2021/06/30 06:50:12;;;;;;;4.75;0.25;;;;;;;20.88;75.33;99443.44;125723;1093;22763;-60
2021/06/30 06:52:43;;;;;;;1.55;0.30;;;;;;;20.89;74.79;99453.48;125744;1092;25960;-60
2021/06/30 06:55:15;;;;;;;4.37;0.40;;;;;;;20.89;74.37;99459.15;125639;1093;22761;-59
2021/06/30 06:57:47;;;;;;;3.58;0.40;;;;;;;20.87;74.39;99459.73;125748;1093;25864;-59
2021/06/30 07:00:20;;;;;;;2.73;0.60;;;;;;;20.83;74.69;99459.36;125569;1093;22940;-59
2021/06/30 07:02:52;;;;;;;2.63;0.50;;;;;;;20.84;74.38;99458.02;125673;1093;22809;-60
2021/06/30 07:05:24;;;;;;;1.90;0.60;;;;;;;20.84;74.04;99468.59;125727;1092;24468;-59
2021/06/30 07:07:55;;;;;;;2.33;0.75;;;;;;;20.83;73.21;99465.03;125891;1093;22835;-59
2021/06/30 07:10:27;;;;;;;3.20;0.70;;;;;;;20.82;72.94;99472.02;125695;1093;22761;-61
2021/06/30 07:12:58;;;;;;;2.90;0.70;;;;;;;20.83;73.58;99472.78;125826;1093;22736;-58
2021/06/30 07:15:30;;;;;;;3.53;0.60;;;;;;;20.91;73.64;99473.52;125635;1092;24423;-59
2021/06/30 07:18:01;;;;;;;2.15;0.70;;;;;;;21.03;73.36;99471.06;125661;1093;22760;-58
2021/06/30 07:20:33;;;;;;;1.70;0.67;;;;;;;21.20;72.83;99471.98;125599;1093;22797;-59
2021/06/30 07:23:05;;;;;;;2.20;0.90;;;;;;;21.35;73.11;99468.36;125923;1092;22761;-59
2021/06/30 07:25:37;;;;;;;3.65;0.80;;;;;;;21.48;72.32;99477.39;125625;1093;22781;-59
2021/06/30 07:28:10;;;;;;;3.30;0.60;;;;;;;21.53;71.74;99481.35;125811;1093;27663;-59
2021/06/30 07:30:41;;;;;;;3.15;0.90;;;;;;;21.58;71.54;99471.88;125937;1093;22755;-59
2021/06/30 07:33:13;;;;;;;2.93;1.00;;;;;;;21.60;71.33;99478.47;125759;1093;27217;-60
2021/06/30 07:35:49;;;;;;;2.63;0.90;;;;;;;21.64;71.39;99481.67;125769;1093;22762;-59
2021/06/30 07:38:27;;;;;;;3.57;0.80;;;;;;;21.72;71.00;99475.98;125726;1093;22764;-59
2021/06/30 07:41:05;;;;;;;3.03;0.80;;;;;;;21.82;70.96;99481.83;125430;1093;29259;-59
2021/06/30 07:43:39;;;;;;;4.48;1.00;;;;;;;21.93;71.31;99484.25;125952;1093;22992;-60
2021/06/30 07:46:11;;;;;;;2.33;0.70;;;;;;;22.09;70.77;99471.45;125761;1092;27208;-59
2021/06/30 07:48:43;;;;;;;2.75;1.00;;;;;;;22.18;70.22;99476.53;125831;1093;22784;-59
2021/06/30 07:51:14;;;;;;;4.93;0.80;;;;;;;22.19;69.72;99484.47;125805;1093;22813;-58
2021/06/30 07:53:46;;;;;;;2.00;0.70;;;;;;;22.19;69.33;99487.31;125670;1093;22765;-60
2021/06/30 07:56:17;;;;;;;3.68;0.75;;;;;;;22.21;69.22;99495.25;125828;1093;23458;-62
2021/06/30 07:58:49;;;;;;;2.93;0.90;;;;;;;22.21;68.87;99509.47;125594;1093;22876;-59
2021/06/30 08:01:21;;;;;;;2.17;0.70;;;;;;;22.18;68.74;99499.27;125882;1093;22777;-60
2021/06/30 08:03:52;;;;;;;3.28;0.70;;;;;;;22.17;68.54;99506.27;125876;1092;22844;-59
2021/06/30 08:06:23;;;;;;;2.20;0.68;;;;;;;22.21;68.23;99498.86;125640;1093;24435;-59
2021/06/30 08:08:55;;;;;;;2.63;0.80;;;;;;;22.19;67.69;99495.08;125641;1093;26274;-60
2021/06/30 08:11:27;;;;;;;2.90;0.80;;;;;;;22.17;67.61;99497.75;125799;1093;24448;-61
2021/06/30 08:13:58;;;;;;;1.98;0.70;;;;;;;22.15;67.84;99511.78;125633;1093;26282;-59
2021/06/30 08:16:30;;;;;;;2.45;0.60;;;;;;;22.16;67.31;99504.78;125791;1093;22784;-59
2021/06/30 08:19:01;;;;;;;2.68;0.80;;;;;;;22.18;67.79;99510.64;125685;1092;27208;-59
2021/06/30 08:21:33;;;;;;;6.40;1.00;;;;;;;22.22;67.45;99519.53;125684;1093;22760;-59
2021/06/30 08:24:05;;;;;;;2.63;0.90;;;;;;;22.23;67.04;99515.34;125557;1091;22768;-60
2021/06/30 08:26:36;;;;;;;2.98;1.00;;;;;;;22.24;66.59;99519.70;125588;1093;22785;-60
2021/06/30 08:29:07;;;;;;;3.20;1.10;;;;;;;22.31;67.06;99516.05;126051;1093;22797;-59
2021/06/30 08:31:39;;;;;;;3.20;0.80;;;;;;;22.43;66.67;99511.41;125636;1093;22767;-60
2021/06/30 08:34:11;;;;;;;3.48;0.83;;;;;;;22.53;66.42;99515.89;125704;1093;22758;-58
2021/06/30 08:36:42;;;;;;;2.33;0.80;;;;;;;22.61;65.74;99515.88;125659;1093;22787;-60
2021/06/30 08:39:14;;;;;;;3.25;1.03;;;;;;;22.58;65.81;99516.23;125734;1093;22766;-60
2021/06/30 08:41:46;;;;;;;2.65;0.88;;;;;;;22.56;65.53;99522.52;125853;1091;22784;-60
2021/06/30 08:44:17;;;;;;;2.85;0.70;;;;;;;22.50;64.92;99522.75;125662;1092;22813;-59
2021/06/30 08:46:49;;;;;;;2.03;0.70;;;;;;;22.49;64.95;99526.91;125689;1093;22761;-60
2021/06/30 08:49:23;;;;;;;3.23;1.10;;;;;;;22.50;65.24;99519.15;125718;1093;22816;-58
2021/06/30 08:51:56;;;;;;;4.60;0.90;;;;;;;22.55;65.54;99527.44;125740;1093;22761;-58
2021/06/30 08:54:28;;;;;;;2.78;0.90;;;;;;;22.70;65.87;99523.03;125966;1093;22776;-59
2021/06/30 08:57:00;;;;;;;3.90;0.90;;;;;;;22.87;65.33;99520.98;125777;1092;27196;-61
2021/06/30 08:59:32;;;;;;;3.15;1.00;;;;;;;22.99;65.56;99521.24;125758;1093;22760;-59
2021/06/30 09:02:04;;;;;;;2.28;0.83;;;;;;;23.13;65.00;99531.74;125658;1093;22784;-60
2021/06/30 09:04:42;;;;;;;4.30;0.90;;;;;;;23.28;65.01;99531.61;125727;1093;22830;-60
2021/06/30 09:07:18;;;;;;;4.03;1.10;;;;;;;23.39;64.18;99541.78;125815;1092;22766;-59
2021/06/30 09:09:50;;;;;;;3.53;1.00;;;;;;;23.54;64.20;99540.88;126526;1093;23036;-60
2021/06/30 09:12:38;;;;;;;4.45;1.13;;;;;;;23.65;63.87;99535.41;125647;1093;24461;-60
2021/06/30 09:15:27;;;;;;;5.95;1.10;;;;;;;23.69;63.14;99540.71;126006;1093;22757;-60
2021/06/30 09:24:17;;;;;;;7.03;1.40;;;;;;;23.98;62.48;99542.42;126192;1090;22754;-59
2021/06/30 09:27:00;;;;;;;3.60;1.40;;;;;;;23.97;62.13;99540.94;125901;1090;26583;-59
2021/06/30 09:29:35;;;;;;;3.67;1.23;;;;;;;23.93;62.06;99531.29;129315;1090;22864;-60
2021/06/30 09:32:11;;;;;;;4.35;1.00;;;;;;;23.93;61.98;99531.29;126232;1090;22855;-61
2021/06/30 09:34:44;;;;;;;3.43;1.38;;;;;;;24.00;62.24;99525.48;127232;1090;28318;-60
2021/06/30 09:37:16;;;;;;;4.93;1.10;;;;;;;24.08;62.08;99536.84;126241;1089;22819;-59
2021/06/30 09:39:58;;;;;;;8.33;1.40;;;;;;;24.11;61.18;99529.20;126084;1089;22803;-62
2021/06/30 09:42:33;;;;;;;3.58;1.40;;;;;;;24.05;61.31;99526.59;126328;1090;22800;-61
2021/06/30 09:45:17;;;;;;;3.93;1.13;;;;;;;24.04;60.74;99525.11;126402;1090;22761;-63
2021/06/30 09:47:51;;;;;;;3.18;1.05;;;;;;;24.02;60.88;99528.50;126292;1090;22792;-62
2021/06/30 09:50:41;;;;;;;2.83;1.00;;;;;;;24.07;60.63;99524.67;126082;1090;22790;-63
2021/06/30 09:53:30;;;;;;;4.78;0.90;;;;;;;24.13;60.77;99518.69;126083;1090;22812;-61
2021/06/30 09:56:32;;;;;;;6.65;1.13;;;;;;;24.18;60.24;99528.33;126242;1090;22893;-62
2021/06/30 09:59:17;;;;;;;2.88;1.05;;;;;;;24.21;60.35;99533.60;126182;1090;26338;-60
2021/06/30 10:01:57;;;;;;;3.53;1.20;;;;;;;24.33;60.25;99542.39;126107;1090;23098;-61
2021/06/30 10:04:31;;;;;;;3.28;1.20;;;;;;;24.45;59.83;99541.27;126160;1090;22900;-60
2021/06/30 10:07:11;;;;;;;4.00;1.40;;;;;;;24.47;59.55;99543.52;126335;1090;22825;-61
2021/06/30 10:09:59;;;;;;;4.60;1.00;;;;;;;24.52;59.23;99548.21;126089;1090;24608;-62
2021/06/30 10:12:32;;;;;;;5.50;1.08;;;;;;;24.55;59.00;99547.77;125932;1090;22801;-61
2021/06/30 10:15:06;;;;;;;2.40;1.10;;;;;;;24.55;58.63;99544.16;126114;1090;22790;-62
2021/06/30 10:17:38;;;;;;;2.25;0.90;;;;;;;24.48;58.78;99548.63;126192;1090;22753;-64
2021/06/30 10:20:12;;;;;;;4.50;1.10;;;;;;;24.48;58.56;99551.48;125991;1088;26331;-62
2021/06/30 10:22:44;;;;;;;2.23;0.95;;;;;;;24.47;58.51;99549.22;126074;1090;25868;-60
2021/06/30 10:25:16;;;;;;;2.13;0.80;;;;;;;24.49;58.74;99538.73;126010;1090;22761;-63
2021/06/30 10:27:48;;;;;;;3.60;1.10;;;;;;;24.53;58.59;99550.47;126084;1090;27073;-60
2021/06/30 10:30:21;;;;;;;2.80;1.05;;;;;;;24.57;58.61;99547.93;125802;1089;26280;-60
2021/06/30 10:33:01;;;;;;;4.38;1.03;;;;;;;24.61;58.80;99545.39;125822;1090;22763;-62
2021/06/30 10:35:44;;;;;;;4.83;1.40;;;;;;;24.66;58.78;99544.38;125906;1090;22769;-60
2021/06/30 10:38:15;;;;;;;6.13;1.10;;;;;;;24.75;58.50;99551.48;125887;1090;22857;-63
2021/06/30 10:40:47;;;;;;;4.58;1.20;;;;;;;24.83;58.84;99549.25;125832;1090;24448;-60
2021/06/30 10:43:19;;;;;;;7.30;1.20;;;;;;;24.82;58.36;99551.38;126071;1090;22760;-59
2021/06/30 10:46:10;;;;;;;4.83;1.60;;;;;;;24.81;58.21;99549.86;125906;1090;24488;-60
2021/06/30 10:49:22;;;;;;;5.95;1.20;;;;;;;24.79;58.48;99552.55;125894;1090;22818;-62
2021/06/30 10:51:55;;;;;;;5.20;1.20;;;;;;;24.89;58.35;99558.32;126011;1089;22742;-61
2021/06/30 10:54:44;;;;;;;6.05;1.25;;;;;;;24.89;57.49;99547.63;125918;1090;22788;-61
2021/06/30 10:57:32;;;;;;;5.28;1.40;;;;;;;24.84;57.62;99548.69;125999;1090;22937;-60
2021/06/30 11:00:24;;;;;;;6.90;1.50;;;;;;;24.76;57.60;99550.14;126005;1090;23323;-60
2021/06/30 11:03:27;;;;;;;4.00;1.20;;;;;;;24.60;57.49;99561.00;126021;1090;22787;-62
2021/06/30 11:06:24;;;;;;;5.40;1.23;;;;;;;24.57;58.34;99552.88;126012;1090;22798;-63
2021/06/30 11:08:57;;;;;;;5.40;1.03;;;;;;;24.64;58.35;99538.48;126165;1090;22803;-61
2021/06/30 11:11:53;;;;;;;3.63;1.20;;;;;;;24.77;57.96;99546.69;126042;1090;22770;-61
2021/06/30 11:14:40;;;;;;;3.13;1.00;;;;;;;24.78;57.49;99553.16;125906;1088;24605;-64
2021/06/30 11:17:12;;;;;;;2.48;1.10;;;;;;;24.67;57.14;99551.58;126013;1090;22745;-62
2021/06/30 11:19:49;;;;;;;3.35;1.03;;;;;;;24.59;57.47;99548.09;126028;1089;22780;-63
2021/06/30 11:22:29;;;;;;;6.03;1.13;;;;;;;24.52;57.53;99548.21;126044;1090;22760;-61
2021/06/30 11:25:01;;;;;;;;;;;;;;;24.46;57.78;99548.47;126152;1090;22918;-62
2021/06/30 11:27:56;;;;;;;4.45;0.88;;;;;;;24.47;57.85;99549.98;126212;1089;21454;-62
2021/06/30 11:30:43;;;;;;;2.53;0.83;;;;;;;24.52;58.08;99557.50;125906;1090;22903;-61
2021/06/30 11:33:19;;;;;;;3.75;1.00;;;;;;;24.56;57.54;99551.38;125761;1090;23639;-61
2021/06/30 11:35:51;;;;;;;3.90;0.90;;;;;;;24.53;56.99;99550.47;126000;1088;23277;-60
2021/06/30 11:38:27;;;;;;;2.03;0.78;;;;;;;24.49;57.46;99555.85;126089;1090;22848;-60
2021/06/30 11:41:07;;;;;;;2.78;0.88;;;;;;;24.48;57.52;99554.33;126013;1090;25983;-61
2021/06/30 11:43:40;;;;;;;;;;;;;;;24.55;57.14;99559.19;125994;1090;22791;-61
2021/06/30 11:46:14;;;;;;;2.35;1.00;;;;;;;24.66;56.96;99560.74;125924;1090;21518;-60
2021/06/30 11:48:52;;;;;;;4.70;1.00;;;;;;;24.72;56.71;99559.13;126062;1090;22798;-60
2021/06/30 11:51:24;;;;;;;4.28;1.03;;;;;;;24.80;56.50;99567.59;126036;1089;22851;-60
2021/06/30 11:53:56;;;;;;;3.45;1.10;;;;;;;24.78;55.76;99564.58;125842;1090;27789;-63
2021/06/30 11:56:45;;;;;;;4.35;1.05;;;;;;;24.65;55.52;99565.69;125834;1089;26315;-62
2021/06/30 11:59:21;;;;;;;2.20;0.90;;;;;;;24.56;55.88;99568.50;125971;1089;22760;-61
2021/06/30 12:01:55;;;;;;;2.98;1.10;;;;;;;24.50;55.83;99568.03;125832;1090;24778;-60
2021/06/30 12:04:28;;;;;;;2.30;1.00;;;;;;;24.45;56.08;99564.09;126067;1090;22777;-61